sensor_id;sensor_type;location;lat;lon;timestamp;temperature;humidity
2409;DHT22;8463;48.094;7.970;2023-01-19T00:00:04;-0.20;51.30
2409;DHT22;8463;48.094;7.970;2023-01-19T00:02:30;-0.30;51.80
2409;DHT22;8463;48.094;7.970;2023-01-19T00:04:56;-0.20;51.80
2409;DHT22;8463;48.094;7.970;2023-01-19T00:10:48;-0.30;51.30
2409;DHT22;8463;48.094;7.970;2023-01-19T00:13:15;-0.30;49.80
2409;DHT22;8463;48.094;7.970;2023-01-19T00:15:41;-0.30;50.20
2409;DHT22;8463;48.094;7.970;2023-01-19T00:18:06;-0.40;50.20
2409;DHT22;8463;48.094;7.970;2023-01-19T00:20:32;-0.30;50.70
2409;DHT22;8463;48.094;7.970;2023-01-19T00:23:00;-0.30;50.30
2409;DHT22;8463;48.094;7.970;2023-01-19T00:25:26;-0.30;49.50
2409;DHT22;8463;48.094;7.970;2023-01-19T00:27:51;-0.40;49.60
2409;DHT22;8463;48.094;7.970;2023-01-19T00:30:17;-0.50;49.00
2409;DHT22;8463;48.094;7.970;2023-01-19T00:32:42;-0.60;49.70
2409;DHT22;8463;48.094;7.970;2023-01-19T00:35:08;-0.70;51.10
2409;DHT22;8463;48.094;7.970;2023-01-19T00:37:36;-0.80;51.70
2409;DHT22;8463;48.094;7.970;2023-01-19T00:40:02;-0.70;52.60
2409;DHT22;8463;48.094;7.970;2023-01-19T00:42:30;-0.70;52.70
2409;DHT22;8463;48.094;7.970;2023-01-19T00:45:15;-0.60;51.80
2409;DHT22;8463;48.094;7.970;2023-01-19T00:47:43;-0.70;51.00
2409;DHT22;8463;48.094;7.970;2023-01-19T00:50:10;-0.70;52.30
2409;DHT22;8463;48.094;7.970;2023-01-19T00:52:38;-0.70;51.80
2409;DHT22;8463;48.094;7.970;2023-01-19T00:55:04;-0.70;51.80
2409;DHT22;8463;48.094;7.970;2023-01-19T00:57:30;-0.60;51.80
2409;DHT22;8463;48.094;7.970;2023-01-19T00:59:55;-0.60;51.80
2409;DHT22;8463;48.094;7.970;2023-01-19T01:02:21;-0.60;50.90
2409;DHT22;8463;48.094;7.970;2023-01-19T01:04:47;-0.60;50.10
2409;DHT22;8463;48.094;7.970;2023-01-19T01:07:12;-0.60;49.30
2409;DHT22;8463;48.094;7.970;2023-01-19T01:09:38;-0.70;49.20
2409;DHT22;8463;48.094;7.970;2023-01-19T01:12:04;-0.70;49.50
2409;DHT22;8463;48.094;7.970;2023-01-19T01:14:30;-0.70;49.60
2409;DHT22;8463;48.094;7.970;2023-01-19T01:16:55;-0.70;49.60
2409;DHT22;8463;48.094;7.970;2023-01-19T01:19:23;-0.70;49.90
2409;DHT22;8463;48.094;7.970;2023-01-19T01:21:49;-0.70;50.10
2409;DHT22;8463;48.094;7.970;2023-01-19T01:24:15;-0.70;49.70
2409;DHT22;8463;48.094;7.970;2023-01-19T01:26:41;-0.70;49.90
2409;DHT22;8463;48.094;7.970;2023-01-19T01:29:06;-0.70;49.50
2409;DHT22;8463;48.094;7.970;2023-01-19T01:31:32;-0.70;49.70
2409;DHT22;8463;48.094;7.970;2023-01-19T01:34:00;-0.70;49.60
2409;DHT22;8463;48.094;7.970;2023-01-19T01:36:26;-0.70;49.30
2409;DHT22;8463;48.094;7.970;2023-01-19T01:38:56;-0.70;49.10
2409;DHT22;8463;48.094;7.970;2023-01-19T01:41:21;-0.70;48.80
2409;DHT22;8463;48.094;7.970;2023-01-19T01:43:50;-0.70;49.00
2409;DHT22;8463;48.094;7.970;2023-01-19T01:46:18;-0.80;49.40
2409;DHT22;8463;48.094;7.970;2023-01-19T01:48:51;-0.70;50.40
2409;DHT22;8463;48.094;7.970;2023-01-19T01:51:33;-0.70;49.40
2409;DHT22;8463;48.094;7.970;2023-01-19T01:54:31;-0.70;49.80
2409;DHT22;8463;48.094;7.970;2023-01-19T01:57:01;-0.70;50.70
2409;DHT22;8463;48.094;7.970;2023-01-19T01:59:35;-0.70;50.90
2409;DHT22;8463;48.094;7.970;2023-01-19T02:02:24;-0.80;50.30
2409;DHT22;8463;48.094;7.970;2023-01-19T02:05:26;-0.70;51.50
2409;DHT22;8463;48.094;7.970;2023-01-19T02:08:27;-0.70;50.50
2409;DHT22;8463;48.094;7.970;2023-01-19T02:11:14;-0.60;50.40
2409;DHT22;8463;48.094;7.970;2023-01-19T02:13:59;-0.60;50.10
2409;DHT22;8463;48.094;7.970;2023-01-19T02:16:26;-0.60;50.30
2409;DHT22;8463;48.094;7.970;2023-01-19T02:18:53;-0.60;50.00
2409;DHT22;8463;48.094;7.970;2023-01-19T02:24:08;-0.60;50.30
2409;DHT22;8463;48.094;7.970;2023-01-19T02:26:37;-0.60;49.80
2409;DHT22;8463;48.094;7.970;2023-01-19T02:29:08;-0.60;49.30
2409;DHT22;8463;48.094;7.970;2023-01-19T02:31:35;-0.70;49.70
2409;DHT22;8463;48.094;7.970;2023-01-19T02:34:03;-0.70;49.80
2409;DHT22;8463;48.094;7.970;2023-01-19T02:39:13;-0.60;50.40
2409;DHT22;8463;48.094;7.970;2023-01-19T02:41:44;-0.70;49.60
2409;DHT22;8463;48.094;7.970;2023-01-19T02:44:14;-0.70;50.80
2409;DHT22;8463;48.094;7.970;2023-01-19T02:46:41;-0.70;50.40
2409;DHT22;8463;48.094;7.970;2023-01-19T02:49:06;-0.80;49.70
2409;DHT22;8463;48.094;7.970;2023-01-19T02:51:32;-0.80;51.00
2409;DHT22;8463;48.094;7.970;2023-01-19T02:56:54;-0.70;51.30
2409;DHT22;8463;48.094;7.970;2023-01-19T03:05:29;-0.70;51.50
2409;DHT22;8463;48.094;7.970;2023-01-19T03:08:04;-0.70;51.20
2409;DHT22;8463;48.094;7.970;2023-01-19T03:16:20;-0.80;50.70
2409;DHT22;8463;48.094;7.970;2023-01-19T03:18:51;-0.70;50.90
2409;DHT22;8463;48.094;7.970;2023-01-19T03:21:20;-0.70;50.10
2409;DHT22;8463;48.094;7.970;2023-01-19T03:23:49;-0.80;50.30
2409;DHT22;8463;48.094;7.970;2023-01-19T03:26:23;-0.80;50.50
2409;DHT22;8463;48.094;7.970;2023-01-19T03:28:50;-0.80;50.80
2409;DHT22;8463;48.094;7.970;2023-01-19T03:31:19;-0.80;51.50
2409;DHT22;8463;48.094;7.970;2023-01-19T03:33:56;-0.70;51.10
2409;DHT22;8463;48.094;7.970;2023-01-19T03:38:57;-0.90;51.20
2409;DHT22;8463;48.094;7.970;2023-01-19T03:41:25;-1.00;50.30
2409;DHT22;8463;48.094;7.970;2023-01-19T03:43:52;-1.00;50.80
2409;DHT22;8463;48.094;7.970;2023-01-19T03:46:20;-1.00;51.50
2409;DHT22;8463;48.094;7.970;2023-01-19T03:48:47;-0.90;51.50
2409;DHT22;8463;48.094;7.970;2023-01-19T03:51:13;-0.90;51.50
2409;DHT22;8463;48.094;7.970;2023-01-19T03:53:39;-0.80;51.00
2409;DHT22;8463;48.094;7.970;2023-01-19T03:56:15;-0.90;48.70
2409;DHT22;8463;48.094;7.970;2023-01-19T03:58:41;-0.90;49.10
2409;DHT22;8463;48.094;7.970;2023-01-19T04:01:07;-1.00;49.70
2409;DHT22;8463;48.094;7.970;2023-01-19T04:03:33;-1.10;50.60
2409;DHT22;8463;48.094;7.970;2023-01-19T04:05:58;-1.10;50.60
2409;DHT22;8463;48.094;7.970;2023-01-19T04:08:26;-1.00;49.70
2409;DHT22;8463;48.094;7.970;2023-01-19T04:10:52;-1.10;51.10
2409;DHT22;8463;48.094;7.970;2023-01-19T04:13:18;-1.10;50.80
2409;DHT22;8463;48.094;7.970;2023-01-19T04:15:43;-1.00;50.80
2409;DHT22;8463;48.094;7.970;2023-01-19T04:18:11;-1.10;50.30
2409;DHT22;8463;48.094;7.970;2023-01-19T04:20:37;-1.10;50.50
2409;DHT22;8463;48.094;7.970;2023-01-19T04:23:02;-1.10;51.00
2409;DHT22;8463;48.094;7.970;2023-01-19T04:25:29;-1.10;49.90
2409;DHT22;8463;48.094;7.970;2023-01-19T04:27:55;-1.10;49.40
2409;DHT22;8463;48.094;7.970;2023-01-19T04:30:23;-1.10;49.50
2409;DHT22;8463;48.094;7.970;2023-01-19T04:32:49;-1.10;49.20
2409;DHT22;8463;48.094;7.970;2023-01-19T04:35:14;-1.20;48.80
2409;DHT22;8463;48.094;7.970;2023-01-19T04:37:41;-1.20;48.90
2409;DHT22;8463;48.094;7.970;2023-01-19T04:40:07;-1.20;47.70
2409;DHT22;8463;48.094;7.970;2023-01-19T04:42:35;-1.30;47.90
2409;DHT22;8463;48.094;7.970;2023-01-19T04:45:01;-1.30;48.30
2409;DHT22;8463;48.094;7.970;2023-01-19T04:47:29;-1.30;48.20
2409;DHT22;8463;48.094;7.970;2023-01-19T04:49:55;-1.30;47.80
2409;DHT22;8463;48.094;7.970;2023-01-19T04:52:20;-1.40;46.70
2409;DHT22;8463;48.094;7.970;2023-01-19T04:54:46;-1.50;47.10
2409;DHT22;8463;48.094;7.970;2023-01-19T04:57:12;-1.50;47.70
2409;DHT22;8463;48.094;7.970;2023-01-19T04:59:37;-1.40;47.50
2409;DHT22;8463;48.094;7.970;2023-01-19T05:02:03;-1.50;47.40
2409;DHT22;8463;48.094;7.970;2023-01-19T05:04:28;-1.40;48.60
2409;DHT22;8463;48.094;7.970;2023-01-19T05:06:56;-1.40;47.60
2409;DHT22;8463;48.094;7.970;2023-01-19T05:09:22;-1.40;47.00
2409;DHT22;8463;48.094;7.970;2023-01-19T05:11:48;-1.40;46.80
2409;DHT22;8463;48.094;7.970;2023-01-19T05:14:13;-1.50;47.20
2409;DHT22;8463;48.094;7.970;2023-01-19T05:16:41;-1.60;46.80
2409;DHT22;8463;48.094;7.970;2023-01-19T05:19:07;-1.60;46.90
2409;DHT22;8463;48.094;7.970;2023-01-19T05:21:32;-1.60;46.40
2409;DHT22;8463;48.094;7.970;2023-01-19T05:23:58;-1.70;46.20
2409;DHT22;8463;48.094;7.970;2023-01-19T05:26:24;-1.70;46.60
2409;DHT22;8463;48.094;7.970;2023-01-19T05:28:49;-1.70;47.50
2409;DHT22;8463;48.094;7.970;2023-01-19T05:31:15;-1.70;48.20
2409;DHT22;8463;48.094;7.970;2023-01-19T05:33:40;-1.70;48.00
2409;DHT22;8463;48.094;7.970;2023-01-19T05:36:06;-1.70;48.00
2409;DHT22;8463;48.094;7.970;2023-01-19T05:38:32;-1.70;47.90
2409;DHT22;8463;48.094;7.970;2023-01-19T05:40:58;-1.80;47.00
2409;DHT22;8463;48.094;7.970;2023-01-19T05:43:24;-1.80;47.10
2409;DHT22;8463;48.094;7.970;2023-01-19T05:45:52;-1.80;47.40
2409;DHT22;8463;48.094;7.970;2023-01-19T05:48:18;-1.70;47.60
2409;DHT22;8463;48.094;7.970;2023-01-19T05:50:43;-1.70;47.60
2409;DHT22;8463;48.094;7.970;2023-01-19T05:53:09;-1.60;47.70
2409;DHT22;8463;48.094;7.970;2023-01-19T05:55:35;-1.60;47.70
2409;DHT22;8463;48.094;7.970;2023-01-19T05:58:03;-1.60;48.00
2409;DHT22;8463;48.094;7.970;2023-01-19T06:00:28;-1.50;47.90
2409;DHT22;8463;48.094;7.970;2023-01-19T06:02:54;-1.50;48.20
2409;DHT22;8463;48.094;7.970;2023-01-19T06:05:19;-1.50;48.20
2409;DHT22;8463;48.094;7.970;2023-01-19T06:07:46;-1.50;47.80
2409;DHT22;8463;48.094;7.970;2023-01-19T06:10:11;-1.50;47.50
2409;DHT22;8463;48.094;7.970;2023-01-19T06:12:40;-1.50;48.10
2409;DHT22;8463;48.094;7.970;2023-01-19T06:15:07;-1.40;48.30
2409;DHT22;8463;48.094;7.970;2023-01-19T06:17:35;-1.40;48.20
2409;DHT22;8463;48.094;7.970;2023-01-19T06:20:01;-1.30;48.60
2409;DHT22;8463;48.094;7.970;2023-01-19T06:22:27;-1.30;48.70
2409;DHT22;8463;48.094;7.970;2023-01-19T06:24:53;-1.30;49.00
2409;DHT22;8463;48.094;7.970;2023-01-19T06:27:18;-1.20;49.00
2409;DHT22;8463;48.094;7.970;2023-01-19T06:29:44;-1.20;49.00
2409;DHT22;8463;48.094;7.970;2023-01-19T06:32:10;-1.30;48.50
2409;DHT22;8463;48.094;7.970;2023-01-19T06:34:36;-1.30;49.30
2409;DHT22;8463;48.094;7.970;2023-01-19T06:37:02;-1.30;48.90
2409;DHT22;8463;48.094;7.970;2023-01-19T06:39:28;-1.30;48.30
2409;DHT22;8463;48.094;7.970;2023-01-19T06:41:53;-1.30;48.30
2409;DHT22;8463;48.094;7.970;2023-01-19T06:44:19;-1.30;48.40
2409;DHT22;8463;48.094;7.970;2023-01-19T06:46:50;-1.30;48.00
2409;DHT22;8463;48.094;7.970;2023-01-19T06:49:18;-1.00;59.10
2409;DHT22;8463;48.094;7.970;2023-01-19T06:51:46;0.30;66.80
2409;DHT22;8463;48.094;7.970;2023-01-19T06:54:15;1.20;69.10
2409;DHT22;8463;48.094;7.970;2023-01-19T06:56:40;2.00;70.00
2409;DHT22;8463;48.094;7.970;2023-01-19T06:59:06;1.70;66.80
2409;DHT22;8463;48.094;7.970;2023-01-19T07:01:32;1.30;62.10
2409;DHT22;8463;48.094;7.970;2023-01-19T07:04:02;0.80;58.00
2409;DHT22;8463;48.094;7.970;2023-01-19T07:06:28;0.40;56.90
2409;DHT22;8463;48.094;7.970;2023-01-19T07:08:54;0.10;57.00
2409;DHT22;8463;48.094;7.970;2023-01-19T07:11:19;-0.10;56.10
2409;DHT22;8463;48.094;7.970;2023-01-19T07:13:45;-0.30;55.20
2409;DHT22;8463;48.094;7.970;2023-01-19T07:16:16;-0.50;53.20
2409;DHT22;8463;48.094;7.970;2023-01-19T07:18:42;-0.50;52.50
2409;DHT22;8463;48.094;7.970;2023-01-19T07:21:08;-0.60;51.80
2409;DHT22;8463;48.094;7.970;2023-01-19T07:23:34;-0.60;51.40
2409;DHT22;8463;48.094;7.970;2023-01-19T07:26:06;-0.70;48.80
2409;DHT22;8463;48.094;7.970;2023-01-19T07:28:31;-0.80;48.30
2409;DHT22;8463;48.094;7.970;2023-01-19T07:31:00;-0.80;48.20
2409;DHT22;8463;48.094;7.970;2023-01-19T07:33:26;-0.80;48.30
2409;DHT22;8463;48.094;7.970;2023-01-19T07:35:52;-0.70;47.90
2409;DHT22;8463;48.094;7.970;2023-01-19T07:38:19;-0.70;47.90
2409;DHT22;8463;48.094;7.970;2023-01-19T07:40:47;-0.70;47.50
2409;DHT22;8463;48.094;7.970;2023-01-19T07:43:15;-0.70;47.10
2409;DHT22;8463;48.094;7.970;2023-01-19T07:45:41;-0.70;46.80
2409;DHT22;8463;48.094;7.970;2023-01-19T07:48:07;-0.70;47.40
2409;DHT22;8463;48.094;7.970;2023-01-19T07:50:33;-0.70;47.40
2409;DHT22;8463;48.094;7.970;2023-01-19T07:53:07;-0.60;47.20
2409;DHT22;8463;48.094;7.970;2023-01-19T07:55:33;-0.60;46.30
2409;DHT22;8463;48.094;7.970;2023-01-19T07:58:03;-0.60;46.60
2409;DHT22;8463;48.094;7.970;2023-01-19T08:00:32;-0.60;46.70
2409;DHT22;8463;48.094;7.970;2023-01-19T08:02:59;-0.50;47.00
2409;DHT22;8463;48.094;7.970;2023-01-19T08:05:33;-0.50;47.00
2409;DHT22;8463;48.094;7.970;2023-01-19T08:07:59;-0.50;46.90
2409;DHT22;8463;48.094;7.970;2023-01-19T08:10:28;-0.40;45.80
2409;DHT22;8463;48.094;7.970;2023-01-19T08:12:55;-0.50;45.50
2409;DHT22;8463;48.094;7.970;2023-01-19T08:15:21;-0.40;46.10
2409;DHT22;8463;48.094;7.970;2023-01-19T08:18:01;-0.40;45.80
2409;DHT22;8463;48.094;7.970;2023-01-19T08:20:30;-0.40;45.30
2409;DHT22;8463;48.094;7.970;2023-01-19T08:23:02;-0.30;44.60
2409;DHT22;8463;48.094;7.970;2023-01-19T08:25:38;-0.30;44.30
2409;DHT22;8463;48.094;7.970;2023-01-19T08:28:06;-0.30;44.10
2409;DHT22;8463;48.094;7.970;2023-01-19T08:30:38;-0.30;43.90
2409;DHT22;8463;48.094;7.970;2023-01-19T08:33:05;-0.20;44.70
2409;DHT22;8463;48.094;7.970;2023-01-19T08:35:41;-0.20;44.30
2409;DHT22;8463;48.094;7.970;2023-01-19T08:38:08;-0.20;43.60
2409;DHT22;8463;48.094;7.970;2023-01-19T08:40:39;-0.10;43.60
2409;DHT22;8463;48.094;7.970;2023-01-19T08:43:07;-0.10;43.60
2409;DHT22;8463;48.094;7.970;2023-01-19T08:45:38;-0.10;43.60
2409;DHT22;8463;48.094;7.970;2023-01-19T08:48:17;-0.10;43.60
2409;DHT22;8463;48.094;7.970;2023-01-19T08:50:48;0.00;43.10
2409;DHT22;8463;48.094;7.970;2023-01-19T08:53:14;0.00;42.50
2409;DHT22;8463;48.094;7.970;2023-01-19T08:55:40;0.00;42.30
2409;DHT22;8463;48.094;7.970;2023-01-19T08:58:06;0.00;42.80
2409;DHT22;8463;48.094;7.970;2023-01-19T09:00:36;0.00;42.40
2409;DHT22;8463;48.094;7.970;2023-01-19T09:03:07;0.10;42.70
2409;DHT22;8463;48.094;7.970;2023-01-19T09:05:34;0.10;43.80
2409;DHT22;8463;48.094;7.970;2023-01-19T09:08:08;0.10;43.80
2409;DHT22;8463;48.094;7.970;2023-01-19T09:10:43;0.20;43.90
2409;DHT22;8463;48.094;7.970;2023-01-19T09:13:10;0.20;43.90
2409;DHT22;8463;48.094;7.970;2023-01-19T09:15:40;0.30;44.00
2409;DHT22;8463;48.094;7.970;2023-01-19T09:18:11;0.30;44.00
2409;DHT22;8463;48.094;7.970;2023-01-19T09:20:42;0.30;42.90
2409;DHT22;8463;48.094;7.970;2023-01-19T09:23:18;0.30;44.00
2409;DHT22;8463;48.094;7.970;2023-01-19T09:25:45;0.30;44.00
2409;DHT22;8463;48.094;7.970;2023-01-19T09:28:16;0.40;43.80
2409;DHT22;8463;48.094;7.970;2023-01-19T09:30:42;0.40;44.10
2409;DHT22;8463;48.094;7.970;2023-01-19T09:33:10;0.40;44.10
2409;DHT22;8463;48.094;7.970;2023-01-19T09:35:46;0.40;44.90
2409;DHT22;8463;48.094;7.970;2023-01-19T09:38:19;0.40;45.60
2409;DHT22;8463;48.094;7.970;2023-01-19T09:40:55;0.50;46.10
2409;DHT22;8463;48.094;7.970;2023-01-19T09:43:43;0.60;45.80
2409;DHT22;8463;48.094;7.970;2023-01-19T09:48:48;0.80;44.50
2409;DHT22;8463;48.094;7.970;2023-01-19T09:51:28;0.90;44.50
2409;DHT22;8463;48.094;7.970;2023-01-19T09:56:45;1.10;44.70
2409;DHT22;8463;48.094;7.970;2023-01-19T09:59:23;1.20;44.80
2409;DHT22;8463;48.094;7.970;2023-01-19T10:02:56;1.30;44.90
2409;DHT22;8463;48.094;7.970;2023-01-19T10:10:21;1.50;43.20
2409;DHT22;8463;48.094;7.970;2023-01-19T10:18:41;1.50;41.90
2409;DHT22;8463;48.094;7.970;2023-01-19T10:21:30;1.50;42.60
2409;DHT22;8463;48.094;7.970;2023-01-19T10:24:04;1.50;42.80
2409;DHT22;8463;48.094;7.970;2023-01-19T10:26:33;1.40;42.10
2409;DHT22;8463;48.094;7.970;2023-01-19T10:29:04;1.40;42.60
2409;DHT22;8463;48.094;7.970;2023-01-19T10:31:31;1.30;44.10
2409;DHT22;8463;48.094;7.970;2023-01-19T10:33:58;1.30;43.00
2409;DHT22;8463;48.094;7.970;2023-01-19T10:36:34;1.30;44.80
2409;DHT22;8463;48.094;7.970;2023-01-19T10:39:03;1.10;43.60
2409;DHT22;8463;48.094;7.970;2023-01-19T10:41:50;1.00;44.70
2409;DHT22;8463;48.094;7.970;2023-01-19T10:44:27;1.00;46.00
2409;DHT22;8463;48.094;7.970;2023-01-19T10:47:00;1.00;46.70
2409;DHT22;8463;48.094;7.970;2023-01-19T10:49:27;1.10;46.10
2409;DHT22;8463;48.094;7.970;2023-01-19T10:51:59;1.20;46.70
2409;DHT22;8463;48.094;7.970;2023-01-19T10:54:29;1.20;45.80
2409;DHT22;8463;48.094;7.970;2023-01-19T10:57:04;1.30;45.90
2409;DHT22;8463;48.094;7.970;2023-01-19T10:59:50;2.30;68.70
2409;DHT22;8463;48.094;7.970;2023-01-19T11:02:27;2.20;41.40
2409;DHT22;8463;48.094;7.970;2023-01-19T11:07:27;1.50;42.40
2409;DHT22;8463;48.094;7.970;2023-01-19T11:10:18;1.30;43.50
2409;DHT22;8463;48.094;7.970;2023-01-19T11:13:09;1.30;45.40
2409;DHT22;8463;48.094;7.970;2023-01-19T11:18:06;1.30;46.30
2409;DHT22;8463;48.094;7.970;2023-01-19T11:20:48;1.20;43.20
2409;DHT22;8463;48.094;7.970;2023-01-19T11:23:47;1.20;44.80
2409;DHT22;8463;48.094;7.970;2023-01-19T11:26:27;1.20;44.80
2409;DHT22;8463;48.094;7.970;2023-01-19T11:28:54;1.30;44.90
2409;DHT22;8463;48.094;7.970;2023-01-19T11:31:29;1.40;46.80
2409;DHT22;8463;48.094;7.970;2023-01-19T11:34:04;1.50;45.10
2409;DHT22;8463;48.094;7.970;2023-01-19T11:36:35;1.50;42.00
2409;DHT22;8463;48.094;7.970;2023-01-19T11:39:23;1.40;41.80
2409;DHT22;8463;48.094;7.970;2023-01-19T11:41:56;1.40;40.50
2409;DHT22;8463;48.094;7.970;2023-01-19T11:44:35;1.40;41.40
2409;DHT22;8463;48.094;7.970;2023-01-19T11:47:26;1.50;42.50
2409;DHT22;8463;48.094;7.970;2023-01-19T11:50:00;1.50;43.20
2409;DHT22;8463;48.094;7.970;2023-01-19T11:55:41;1.40;41.20
2409;DHT22;8463;48.094;7.970;2023-01-19T11:58:15;1.40;41.40
2409;DHT22;8463;48.094;7.970;2023-01-19T12:06:30;1.40;40.30
2409;DHT22;8463;48.094;7.970;2023-01-19T12:09:11;1.40;41.10
2409;DHT22;8463;48.094;7.970;2023-01-19T12:11:47;1.50;41.60
2409;DHT22;8463;48.094;7.970;2023-01-19T12:14:27;1.60;42.50
2409;DHT22;8463;48.094;7.970;2023-01-19T12:17:02;1.60;43.60
2409;DHT22;8463;48.094;7.970;2023-01-19T12:20:04;1.60;42.70
2409;DHT22;8463;48.094;7.970;2023-01-19T12:22:28;1.50;42.30
2409;DHT22;8463;48.094;7.970;2023-01-19T12:25:37;1.50;41.10
2409;DHT22;8463;48.094;7.970;2023-01-19T12:28:11;1.60;42.00
2409;DHT22;8463;48.094;7.970;2023-01-19T12:30:38;1.60;41.80
2409;DHT22;8463;48.094;7.970;2023-01-19T12:38:38;1.70;42.30
2409;DHT22;8463;48.094;7.970;2023-01-19T12:46:38;1.70;39.40
2409;DHT22;8463;48.094;7.970;2023-01-19T12:49:29;1.70;38.60
2409;DHT22;8463;48.094;7.970;2023-01-19T12:55:05;1.70;41.00
2409;DHT22;8463;48.094;7.970;2023-01-19T13:00:36;1.70;42.00
2409;DHT22;8463;48.094;7.970;2023-01-19T13:05:54;1.80;41.50
2409;DHT22;8463;48.094;7.970;2023-01-19T13:11:18;1.80;41.20
2409;DHT22;8463;48.094;7.970;2023-01-19T13:21:37;1.90;40.20
2409;DHT22;8463;48.094;7.970;2023-01-19T13:24:23;1.90;40.20
2409;DHT22;8463;48.094;7.970;2023-01-19T13:27:01;1.90;38.90
2409;DHT22;8463;48.094;7.970;2023-01-19T13:29:39;2.00;39.60
2409;DHT22;8463;48.094;7.970;2023-01-19T13:32:12;2.00;38.40
2409;DHT22;8463;48.094;7.970;2023-01-19T13:34:58;2.00;39.00
2409;DHT22;8463;48.094;7.970;2023-01-19T13:37:30;2.10;39.10
2409;DHT22;8463;48.094;7.970;2023-01-19T13:40:01;2.10;39.00
2409;DHT22;8463;48.094;7.970;2023-01-19T13:47:52;2.10;37.80
2409;DHT22;8463;48.094;7.970;2023-01-19T13:50:28;2.40;54.00
2409;DHT22;8463;48.094;7.970;2023-01-19T13:52:55;3.20;49.70
2409;DHT22;8463;48.094;7.970;2023-01-19T13:55:25;2.80;35.90
2409;DHT22;8463;48.094;7.970;2023-01-19T13:57:54;2.50;35.30
2409;DHT22;8463;48.094;7.970;2023-01-19T14:00:32;2.30;36.90
2409;DHT22;8463;48.094;7.970;2023-01-19T14:05:43;2.10;41.80
2409;DHT22;8463;48.094;7.970;2023-01-19T14:15:55;2.10;42.90
2409;DHT22;8463;48.094;7.970;2023-01-19T14:18:23;2.00;43.60
2409;DHT22;8463;48.094;7.970;2023-01-19T14:21:12;2.00;43.90
2409;DHT22;8463;48.094;7.970;2023-01-19T14:29:24;2.00;42.20
2409;DHT22;8463;48.094;7.970;2023-01-19T14:34:44;2.10;42.70
2409;DHT22;8463;48.094;7.970;2023-01-19T14:42:45;2.20;42.60
2409;DHT22;8463;48.094;7.970;2023-01-19T14:47:55;2.30;41.90
2409;DHT22;8463;48.094;7.970;2023-01-19T14:55:57;2.30;41.20
2409;DHT22;8463;48.094;7.970;2023-01-19T14:58:25;2.30;41.00
2409;DHT22;8463;48.094;7.970;2023-01-19T15:00:57;2.30;41.40
2409;DHT22;8463;48.094;7.970;2023-01-19T15:03:24;2.30;41.10
2409;DHT22;8463;48.094;7.970;2023-01-19T15:05:54;2.30;41.00
2409;DHT22;8463;48.094;7.970;2023-01-19T15:08:30;2.30;41.10
2409;DHT22;8463;48.094;7.970;2023-01-19T15:11:01;2.30;41.00
2409;DHT22;8463;48.094;7.970;2023-01-19T15:13:31;2.30;40.80
2409;DHT22;8463;48.094;7.970;2023-01-19T15:15:56;2.10;40.40
2409;DHT22;8463;48.094;7.970;2023-01-19T15:18:25;2.10;41.20
2409;DHT22;8463;48.094;7.970;2023-01-19T15:20:52;2.10;42.60
2409;DHT22;8463;48.094;7.970;2023-01-19T15:23:24;2.10;44.00
2409;DHT22;8463;48.094;7.970;2023-01-19T15:25:50;2.20;44.70
2409;DHT22;8463;48.094;7.970;2023-01-19T15:28:17;2.20;45.70
2409;DHT22;8463;48.094;7.970;2023-01-19T15:30:49;2.20;45.70
2409;DHT22;8463;48.094;7.970;2023-01-19T15:33:23;2.20;45.70
2409;DHT22;8463;48.094;7.970;2023-01-19T15:35:49;2.20;46.30
2409;DHT22;8463;48.094;7.970;2023-01-19T15:38:16;2.10;45.60
2409;DHT22;8463;48.094;7.970;2023-01-19T15:40:46;2.10;46.50
2409;DHT22;8463;48.094;7.970;2023-01-19T15:43:13;2.10;47.30
2409;DHT22;8463;48.094;7.970;2023-01-19T15:45:49;2.10;47.40
2409;DHT22;8463;48.094;7.970;2023-01-19T15:48:17;2.10;47.20
2409;DHT22;8463;48.094;7.970;2023-01-19T15:50:47;2.00;47.10
2409;DHT22;8463;48.094;7.970;2023-01-19T15:53:21;2.00;47.30
2409;DHT22;8463;48.094;7.970;2023-01-19T15:55:50;1.90;48.50
2409;DHT22;8463;48.094;7.970;2023-01-19T15:58:16;1.90;49.70
2409;DHT22;8463;48.094;7.970;2023-01-19T16:00:52;1.90;49.50
2409;DHT22;8463;48.094;7.970;2023-01-19T16:03:21;2.00;49.80
2409;DHT22;8463;48.094;7.970;2023-01-19T16:05:47;2.00;49.80
2409;DHT22;8463;48.094;7.970;2023-01-19T16:08:13;1.90;49.50
2409;DHT22;8463;48.094;7.970;2023-01-19T16:10:39;1.90;49.60
2409;DHT22;8463;48.094;7.970;2023-01-19T16:13:10;1.90;49.80
2409;DHT22;8463;48.094;7.970;2023-01-19T16:15:37;1.90;49.70
2409;DHT22;8463;48.094;7.970;2023-01-19T16:18:03;1.90;50.10
2409;DHT22;8463;48.094;7.970;2023-01-19T16:20:29;1.80;52.00
2409;DHT22;8463;48.094;7.970;2023-01-19T16:22:57;1.70;52.20
2409;DHT22;8463;48.094;7.970;2023-01-19T16:25:23;1.70;53.90
2409;DHT22;8463;48.094;7.970;2023-01-19T16:27:49;1.60;53.80
2409;DHT22;8463;48.094;7.970;2023-01-19T16:30:16;1.60;54.60
2409;DHT22;8463;48.094;7.970;2023-01-19T16:32:45;1.50;55.40
2409;DHT22;8463;48.094;7.970;2023-01-19T16:35:11;1.50;59.40
2409;DHT22;8463;48.094;7.970;2023-01-19T16:37:37;3.60;72.50
2409;DHT22;8463;48.094;7.970;2023-01-19T16:40:04;3.20;65.50
2409;DHT22;8463;48.094;7.970;2023-01-19T16:42:33;3.00;63.20
2409;DHT22;8463;48.094;7.970;2023-01-19T16:44:59;2.70;62.10
2409;DHT22;8463;48.094;7.970;2023-01-19T16:47:25;2.50;60.90
2409;DHT22;8463;48.094;7.970;2023-01-19T16:49:50;2.30;58.80
2409;DHT22;8463;48.094;7.970;2023-01-19T16:52:16;2.10;58.50
2409;DHT22;8463;48.094;7.970;2023-01-19T16:54:48;2.00;58.20
2409;DHT22;8463;48.094;7.970;2023-01-19T16:57:13;1.90;57.30
2409;DHT22;8463;48.094;7.970;2023-01-19T16:59:39;1.90;57.10
2409;DHT22;8463;48.094;7.970;2023-01-19T17:02:06;2.00;57.80
2409;DHT22;8463;48.094;7.970;2023-01-19T17:04:31;2.00;56.80
2409;DHT22;8463;48.094;7.970;2023-01-19T17:06:58;1.90;56.10
2409;DHT22;8463;48.094;7.970;2023-01-19T17:09:23;1.90;55.90
2409;DHT22;8463;48.094;7.970;2023-01-19T17:11:49;1.90;55.20
2409;DHT22;8463;48.094;7.970;2023-01-19T17:14:17;1.80;54.60
2409;DHT22;8463;48.094;7.970;2023-01-19T17:16:49;1.80;54.00
2409;DHT22;8463;48.094;7.970;2023-01-19T17:19:16;1.80;54.00
2409;DHT22;8463;48.094;7.970;2023-01-19T17:21:49;1.80;54.00
2409;DHT22;8463;48.094;7.970;2023-01-19T17:24:15;1.80;54.00
2409;DHT22;8463;48.094;7.970;2023-01-19T17:26:41;1.70;53.90
2409;DHT22;8463;48.094;7.970;2023-01-19T17:29:08;1.70;53.90
2409;DHT22;8463;48.094;7.970;2023-01-19T17:31:40;1.60;53.80
2409;DHT22;8463;48.094;7.970;2023-01-19T17:34:07;1.60;53.80
2409;DHT22;8463;48.094;7.970;2023-01-19T17:36:34;1.60;53.80
2409;DHT22;8463;48.094;7.970;2023-01-19T17:39:08;1.60;53.80
2409;DHT22;8463;48.094;7.970;2023-01-19T17:41:39;1.60;53.80
2409;DHT22;8463;48.094;7.970;2023-01-19T17:44:05;1.60;53.80
2409;DHT22;8463;48.094;7.970;2023-01-19T17:46:34;1.60;53.80
2409;DHT22;8463;48.094;7.970;2023-01-19T17:49:05;1.60;53.80
2409;DHT22;8463;48.094;7.970;2023-01-19T17:51:31;1.60;53.80
2409;DHT22;8463;48.094;7.970;2023-01-19T17:53:57;1.60;53.80
2409;DHT22;8463;48.094;7.970;2023-01-19T17:56:26;1.60;53.80
2409;DHT22;8463;48.094;7.970;2023-01-19T17:58:57;1.60;53.80
2409;DHT22;8463;48.094;7.970;2023-01-19T18:01:25;1.60;53.80
2409;DHT22;8463;48.094;7.970;2023-01-19T18:03:52;1.60;53.80
2409;DHT22;8463;48.094;7.970;2023-01-19T18:06:18;1.60;53.80
2409;DHT22;8463;48.094;7.970;2023-01-19T18:08:50;1.60;53.80
2409;DHT22;8463;48.094;7.970;2023-01-19T18:11:18;1.60;53.80
2409;DHT22;8463;48.094;7.970;2023-01-19T18:13:49;1.60;53.80
2409;DHT22;8463;48.094;7.970;2023-01-19T18:16:18;1.60;53.80
2409;DHT22;8463;48.094;7.970;2023-01-19T18:18:51;1.50;53.70
2409;DHT22;8463;48.094;7.970;2023-01-19T18:21:18;1.60;53.80
2409;DHT22;8463;48.094;7.970;2023-01-19T18:23:48;1.60;53.40
2409;DHT22;8463;48.094;7.970;2023-01-19T18:26:20;1.50;52.70
2409;DHT22;8463;48.094;7.970;2023-01-19T18:28:52;1.50;52.90
2409;DHT22;8463;48.094;7.970;2023-01-19T18:31:18;1.40;53.00